sensor_id;sensor_type;location;lat;lon;timestamp;pressure;altitude;pressure_sealevel;temperature;humidity
11672;BME280;5892;43.412;24.612;2023-02-28T00:00:50;100770.59;;;6.92;100.00
11672;BME280;5892;43.412;24.612;2023-02-28T00:03:17;100802.16;;;7.13;100.00
11672;BME280;5892;43.412;24.612;2023-02-28T00:05:45;100749.91;;;6.70;100.00
11672;BME280;5892;43.412;24.612;2023-02-28T00:08:13;100808.69;;;7.12;100.00
11672;BME280;5892;43.412;24.612;2023-02-28T00:10:40;100808.44;;;7.03;100.00
11672;BME280;5892;43.412;24.612;2023-02-28T00:13:07;100689.25;;;6.29;100.00
11672;BME280;5892;43.412;24.612;2023-02-28T00:15:35;100786.13;;;6.86;100.00
11672;BME280;5892;43.412;24.612;2023-02-28T00:18:02;100774.72;;;6.79;100.00
11672;BME280;5892;43.412;24.612;2023-02-28T00:20:29;100821.81;;;7.00;100.00
11672;BME280;5892;43.412;24.612;2023-02-28T00:22:57;100822.34;;;6.92;100.00
11672;BME280;5892;43.412;24.612;2023-02-28T00:25:25;100843.31;;;6.96;100.00
11672;BME280;5892;43.412;24.612;2023-02-28T00:27:52;100786.44;;;6.69;100.00
11672;BME280;5892;43.412;24.612;2023-02-28T00:30:21;100841.72;;;6.95;100.00
11672;BME280;5892;43.412;24.612;2023-02-28T00:32:49;100840.88;;;7.05;100.00
11672;BME280;5892;43.412;24.612;2023-02-28T00:35:16;100851.22;;;7.13;100.00
11672;BME280;5892;43.412;24.612;2023-02-28T00:37:43;100849.59;;;6.97;100.00
11672;BME280;5892;43.412;24.612;2023-02-28T00:40:11;100837.34;;;6.94;100.00
11672;BME280;5892;43.412;24.612;2023-02-28T00:42:39;100878.22;;;6.89;100.00
11672;BME280;5892;43.412;24.612;2023-02-28T00:45:07;100849.31;;;6.98;100.00
11672;BME280;5892;43.412;24.612;2023-02-28T00:47:34;100861.88;;;6.99;100.00
11672;BME280;5892;43.412;24.612;2023-02-28T00:50:01;100823.19;;;6.77;100.00
11672;BME280;5892;43.412;24.612;2023-02-28T00:52:28;100864.03;;;7.12;100.00
11672;BME280;5892;43.412;24.612;2023-02-28T00:54:55;100815.00;;;6.87;100.00
11672;BME280;5892;43.412;24.612;2023-02-28T00:57:23;100862.69;;;7.15;100.00
11672;BME280;5892;43.412;24.612;2023-02-28T00:59:50;100874.41;;;7.10;100.00
11672;BME280;5892;43.412;24.612;2023-02-28T01:02:19;100845.78;;;6.77;100.00
11672;BME280;5892;43.412;24.612;2023-02-28T01:04:46;100860.78;;;6.75;100.00
11672;BME280;5892;43.412;24.612;2023-02-28T01:07:13;100862.41;;;6.71;100.00
11672;BME280;5892;43.412;24.612;2023-02-28T01:09:41;100858.03;;;6.70;100.00
11672;BME280;5892;43.412;24.612;2023-02-28T01:12:08;100814.44;;;6.39;100.00
11672;BME280;5892;43.412;24.612;2023-02-28T01:14:36;100856.34;;;6.38;100.00
11672;BME280;5892;43.412;24.612;2023-02-28T01:17:03;100791.53;;;6.05;100.00
11672;BME280;5892;43.412;24.612;2023-02-28T01:19:30;100828.63;;;6.52;100.00
11672;BME280;5892;43.412;24.612;2023-02-28T01:22:00;100834.06;;;6.52;100.00
11672;BME280;5892;43.412;24.612;2023-02-28T01:24:28;100834.91;;;6.67;100.00
11672;BME280;5892;43.412;24.612;2023-02-28T01:26:54;100792.41;;;6.36;100.00
11672;BME280;5892;43.412;24.612;2023-02-28T01:29:21;100838.44;;;6.78;100.00
11672;BME280;5892;43.412;24.612;2023-02-28T01:31:50;100824.00;;;6.77;100.00
11672;BME280;5892;43.412;24.612;2023-02-28T01:34:16;100840.09;;;6.84;100.00
11672;BME280;5892;43.412;24.612;2023-02-28T01:36:44;100832.16;;;6.93;100.00
11672;BME280;5892;43.412;24.612;2023-02-28T01:39:11;100838.16;;;7.00;100.00
11672;BME280;5892;43.412;24.612;2023-02-28T01:41:39;100827.53;;;6.93;100.00
11672;BME280;5892;43.412;24.612;2023-02-28T01:44:53;100836.28;;;6.80;100.00
11672;BME280;5892;43.412;24.612;2023-02-28T01:46:55;100684.31;;;5.86;100.00
11672;BME280;5892;43.412;24.612;2023-02-28T01:49:22;100831.34;;;6.77;100.00
11672;BME280;5892;43.412;24.612;2023-02-28T01:51:51;100824.81;;;6.73;100.00
11672;BME280;5892;43.412;24.612;2023-02-28T01:54:23;100829.44;;;6.42;100.00
11672;BME280;5892;43.412;24.612;2023-02-28T01:56:55;100834.34;;;6.50;100.00
11672;BME280;5892;43.412;24.612;2023-02-28T01:59:27;100806.81;;;6.31;100.00
11672;BME280;5892;43.412;24.612;2023-02-28T02:01:57;100802.72;;;6.34;100.00
11672;BME280;5892;43.412;24.612;2023-02-28T02:04:27;100843.06;;;6.57;100.00
11672;BME280;5892;43.412;24.612;2023-02-28T02:06:59;100836.22;;;6.50;100.00
11672;BME280;5892;43.412;24.612;2023-02-28T02:09:26;100830.50;;;6.31;100.00
11672;BME280;5892;43.412;24.612;2023-02-28T02:11:55;100825.63;;;6.33;100.00
11672;BME280;5892;43.412;24.612;2023-02-28T02:14:42;100824.50;;;6.29;100.00
11672;BME280;5892;43.412;24.612;2023-02-28T02:17:20;100828.28;;;6.18;100.00
11672;BME280;5892;43.412;24.612;2023-02-28T02:23:06;100820.38;;;6.06;100.00
11672;BME280;5892;43.412;24.612;2023-02-28T02:25:39;100769.06;;;5.58;100.00
11672;BME280;5892;43.412;24.612;2023-02-28T02:28:36;100820.91;;;6.03;100.00
11672;BME280;5892;43.412;24.612;2023-02-28T02:31:28;100814.91;;;5.96;100.00
11672;BME280;5892;43.412;24.612;2023-02-28T02:34:27;100818.16;;;5.98;100.00
11672;BME280;5892;43.412;24.612;2023-02-28T02:37:05;100815.38;;;5.83;100.00
11672;BME280;5892;43.412;24.612;2023-02-28T02:39:40;100771.22;;;5.61;100.00
11672;BME280;5892;43.412;24.612;2023-02-28T02:42:14;100732.16;;;5.09;100.00
11672;BME280;5892;43.412;24.612;2023-02-28T02:44:46;100797.88;;;5.59;100.00
11672;BME280;5892;43.412;24.612;2023-02-28T02:47:17;100709.53;;;4.94;100.00
11672;BME280;5892;43.412;24.612;2023-02-28T02:49:49;100801.09;;;5.50;100.00
11672;BME280;5892;43.412;24.612;2023-02-28T02:52:20;100816.59;;;5.50;100.00
11672;BME280;5892;43.412;24.612;2023-02-28T02:54:50;100753.63;;;5.11;100.00
11672;BME280;5892;43.412;24.612;2023-02-28T02:57:23;100816.88;;;5.48;100.00
11672;BME280;5892;43.412;24.612;2023-02-28T02:59:53;100748.41;;;5.04;100.00
11672;BME280;5892;43.412;24.612;2023-02-28T03:02:22;100845.13;;;5.47;100.00
11672;BME280;5892;43.412;24.612;2023-02-28T03:04:57;100831.44;;;5.32;100.00
11672;BME280;5892;43.412;24.612;2023-02-28T03:07:26;100839.25;;;5.24;100.00
11672;BME280;5892;43.412;24.612;2023-02-28T03:09:54;100776.13;;;4.64;100.00
11672;BME280;5892;43.412;24.612;2023-02-28T03:12:23;100836.16;;;5.05;100.00
11672;BME280;5892;43.412;24.612;2023-02-28T03:14:56;100786.81;;;4.44;100.00
11672;BME280;5892;43.412;24.612;2023-02-28T03:17:42;100850.75;;;4.94;100.00
11672;BME280;5892;43.412;24.612;2023-02-28T03:20:17;100832.69;;;4.78;100.00
11672;BME280;5892;43.412;24.612;2023-02-28T03:22:55;100860.50;;;4.90;100.00
11672;BME280;5892;43.412;24.612;2023-02-28T03:25:32;100844.66;;;4.82;100.00
11672;BME280;5892;43.412;24.612;2023-02-28T03:28:07;100845.81;;;4.86;100.00
11672;BME280;5892;43.412;24.612;2023-02-28T03:30:41;100842.47;;;4.79;100.00
11672;BME280;5892;43.412;24.612;2023-02-28T03:33:13;100880.50;;;4.79;100.00
11672;BME280;5892;43.412;24.612;2023-02-28T03:35:49;100890.31;;;4.85;100.00
11672;BME280;5892;43.412;24.612;2023-02-28T03:38:21;100809.84;;;4.42;100.00
11672;BME280;5892;43.412;24.612;2023-02-28T03:40:51;100868.03;;;4.83;100.00
11672;BME280;5892;43.412;24.612;2023-02-28T03:43:24;100871.47;;;4.73;100.00
11672;BME280;5892;43.412;24.612;2023-02-28T03:45:54;100864.06;;;4.63;100.00
11672;BME280;5892;43.412;24.612;2023-02-28T03:48:25;100790.72;;;4.00;100.00
11672;BME280;5892;43.412;24.612;2023-02-28T03:50:58;100892.94;;;4.75;100.00
11672;BME280;5892;43.412;24.612;2023-02-28T03:53:28;100791.34;;;4.07;100.00
11672;BME280;5892;43.412;24.612;2023-02-28T03:56:01;100910.25;;;4.68;100.00
11672;BME280;5892;43.412;24.612;2023-02-28T03:58:32;100907.56;;;4.68;100.00
11672;BME280;5892;43.412;24.612;2023-02-28T04:01:07;100847.44;;;4.28;100.00
11672;BME280;5892;43.412;24.612;2023-02-28T04:03:37;100906.81;;;4.78;100.00
11672;BME280;5892;43.412;24.612;2023-02-28T04:06:08;100880.94;;;4.65;100.00
11672;BME280;5892;43.412;24.612;2023-02-28T04:08:40;100800.94;;;3.93;100.00
11672;BME280;5892;43.412;24.612;2023-02-28T04:11:15;100894.31;;;4.50;100.00
11672;BME280;5892;43.412;24.612;2023-02-28T04:13:44;100901.25;;;4.36;100.00
11672;BME280;5892;43.412;24.612;2023-02-28T04:16:11;100880.59;;;4.35;100.00
11672;BME280;5892;43.412;24.612;2023-02-28T04:18:38;100791.66;;;3.62;100.00
11672;BME280;5892;43.412;24.612;2023-02-28T04:21:07;100774.25;;;3.58;100.00
11672;BME280;5892;43.412;24.612;2023-02-28T04:23:33;100882.81;;;4.38;100.00
11672;BME280;5892;43.412;24.612;2023-02-28T04:26:00;100885.59;;;4.43;100.00
11672;BME280;5892;43.412;24.612;2023-02-28T04:28:27;100892.72;;;4.49;100.00
11672;BME280;5892;43.412;24.612;2023-02-28T04:30:55;100807.81;;;4.00;100.00
11672;BME280;5892;43.412;24.612;2023-02-28T04:33:22;100913.47;;;4.60;100.00
11672;BME280;5892;43.412;24.612;2023-02-28T04:35:58;100910.75;;;4.60;100.00
11672;BME280;5892;43.412;24.612;2023-02-28T04:38:26;100912.41;;;4.66;100.00
11672;BME280;5892;43.412;24.612;2023-02-28T04:40:53;100920.25;;;4.63;100.00
11672;BME280;5892;43.412;24.612;2023-02-28T04:43:20;100889.41;;;4.47;100.00
11672;BME280;5892;43.412;24.612;2023-02-28T04:45:47;100925.06;;;4.56;100.00
11672;BME280;5892;43.412;24.612;2023-02-28T04:48:14;100940.84;;;4.59;100.00
11672;BME280;5892;43.412;24.612;2023-02-28T04:50:40;100925.38;;;4.59;100.00
11672;BME280;5892;43.412;24.612;2023-02-28T04:53:07;100918.59;;;4.62;100.00
11672;BME280;5892;43.412;24.612;2023-02-28T04:55:35;100924.56;;;4.59;100.00
11672;BME280;5892;43.412;24.612;2023-02-28T04:58:05;100855.25;;;3.98;100.00
11672;BME280;5892;43.412;24.612;2023-02-28T05:00:32;100914.31;;;4.39;100.00
11672;BME280;5892;43.412;24.612;2023-02-28T05:02:59;100897.84;;;4.24;100.00
11672;BME280;5892;43.412;24.612;2023-02-28T05:05:26;100936.50;;;4.36;100.00
11672;BME280;5892;43.412;24.612;2023-02-28T05:07:53;100937.59;;;4.35;100.00
11672;BME280;5892;43.412;24.612;2023-02-28T05:10:21;100939.16;;;4.31;100.00
11672;BME280;5892;43.412;24.612;2023-02-28T05:12:49;100940.69;;;4.44;100.00
11672;BME280;5892;43.412;24.612;2023-02-28T05:15:16;100955.13;;;4.49;100.00
11672;BME280;5892;43.412;24.612;2023-02-28T05:17:43;100929.78;;;4.39;100.00
11672;BME280;5892;43.412;24.612;2023-02-28T05:20:12;100953.59;;;4.58;100.00
11672;BME280;5892;43.412;24.612;2023-02-28T05:22:40;100951.38;;;4.55;100.00
11672;BME280;5892;43.412;24.612;2023-02-28T05:25:10;100877.38;;;3.90;100.00
11672;BME280;5892;43.412;24.612;2023-02-28T05:27:39;100958.38;;;4.51;100.00
11672;BME280;5892;43.412;24.612;2023-02-28T05:30:09;100948.25;;;4.20;100.00
11672;BME280;5892;43.412;24.612;2023-02-28T05:32:36;100923.28;;;4.18;100.00
11672;BME280;5892;43.412;24.612;2023-02-28T05:35:04;100944.41;;;4.16;100.00
11672;BME280;5892;43.412;24.612;2023-02-28T05:37:31;100943.22;;;4.07;100.00
11672;BME280;5892;43.412;24.612;2023-02-28T05:39:58;100974.44;;;4.31;100.00
11672;BME280;5892;43.412;24.612;2023-02-28T05:42:25;100952.56;;;4.16;100.00
11672;BME280;5892;43.412;24.612;2023-02-28T05:44:52;100933.44;;;4.06;100.00
11672;BME280;5892;43.412;24.612;2023-02-28T05:47:21;100967.88;;;4.27;100.00
11672;BME280;5892;43.412;24.612;2023-02-28T05:49:48;100963.03;;;4.29;100.00
11672;BME280;5892;43.412;24.612;2023-02-28T05:52:15;100977.34;;;4.46;100.00
11672;BME280;5892;43.412;24.612;2023-02-28T05:54:42;100987.19;;;4.52;100.00
11672;BME280;5892;43.412;24.612;2023-02-28T05:57:09;100958.09;;;4.26;100.00
11672;BME280;5892;43.412;24.612;2023-02-28T05:59:36;100981.69;;;4.47;100.00
11672;BME280;5892;43.412;24.612;2023-02-28T06:02:05;100985.41;;;4.41;100.00
11672;BME280;5892;43.412;24.612;2023-02-28T06:04:34;100990.84;;;4.41;100.00
11672;BME280;5892;43.412;24.612;2023-02-28T06:07:00;100999.88;;;4.47;100.00
11672;BME280;5892;43.412;24.612;2023-02-28T06:09:28;100971.66;;;4.26;100.00
11672;BME280;5892;43.412;24.612;2023-02-28T06:11:57;100990.91;;;4.46;100.00
11672;BME280;5892;43.412;24.612;2023-02-28T06:14:24;100929.41;;;4.08;100.00
11672;BME280;5892;43.412;24.612;2023-02-28T06:16:51;100993.25;;;4.59;100.00
11672;BME280;5892;43.412;24.612;2023-02-28T06:19:18;101000.22;;;4.55;100.00
11672;BME280;5892;43.412;24.612;2023-02-28T06:21:48;101007.56;;;4.55;100.00
11672;BME280;5892;43.412;24.612;2023-02-28T06:24:16;101007.81;;;4.53;100.00
11672;BME280;5892;43.412;24.612;2023-02-28T06:26:43;100996.22;;;4.36;100.00
11672;BME280;5892;43.412;24.612;2023-02-28T06:29:09;100935.59;;;3.82;100.00
11672;BME280;5892;43.412;24.612;2023-02-28T06:31:42;100941.34;;;4.07;100.00
11672;BME280;5892;43.412;24.612;2023-02-28T06:34:09;101015.00;;;4.64;100.00
11672;BME280;5892;43.412;24.612;2023-02-28T06:36:36;100993.19;;;4.54;100.00
11672;BME280;5892;43.412;24.612;2023-02-28T06:39:06;101034.06;;;4.69;100.00
11672;BME280;5892;43.412;24.612;2023-02-28T06:41:34;100975.63;;;4.40;100.00
11672;BME280;5892;43.412;24.612;2023-02-28T06:44:03;101015.00;;;4.64;100.00
11672;BME280;5892;43.412;24.612;2023-02-28T06:46:31;100976.66;;;4.34;100.00
11672;BME280;5892;43.412;24.612;2023-02-28T06:48:58;100953.69;;;4.20;100.00
11672;BME280;5892;43.412;24.612;2023-02-28T06:51:25;100974.38;;;4.26;100.00
11672;BME280;5892;43.412;24.612;2023-02-28T06:53:52;100967.63;;;4.07;100.00
11672;BME280;5892;43.412;24.612;2023-02-28T06:56:20;101020.06;;;4.56;100.00
11672;BME280;5892;43.412;24.612;2023-02-28T06:58:48;101020.94;;;4.61;100.00
11672;BME280;5892;43.412;24.612;2023-02-28T07:01:15;101016.41;;;4.45;100.00
11672;BME280;5892;43.412;24.612;2023-02-28T07:03:42;101003.72;;;4.29;100.00
11672;BME280;5892;43.412;24.612;2023-02-28T07:06:09;101021.22;;;4.38;100.00
11672;BME280;5892;43.412;24.612;2023-02-28T07:08:37;101016.72;;;4.49;100.00
11672;BME280;5892;43.412;24.612;2023-02-28T07:11:05;101020.94;;;4.61;100.00
11672;BME280;5892;43.412;24.612;2023-02-28T07:13:33;100953.69;;;4.20;100.00
11672;BME280;5892;43.412;24.612;2023-02-28T07:16:01;101015.13;;;4.75;100.00
11672;BME280;5892;43.412;24.612;2023-02-28T07:18:29;101022.69;;;4.73;100.00
11672;BME280;5892;43.412;24.612;2023-02-28T07:20:56;100937.88;;;4.12;100.00
11672;BME280;5892;43.412;24.612;2023-02-28T07:23:23;101029.78;;;4.52;100.00
11672;BME280;5892;43.412;24.612;2023-02-28T07:25:50;100970.34;;;4.07;100.00
11672;BME280;5892;43.412;24.612;2023-02-28T07:28:17;101048.91;;;4.40;100.00
11672;BME280;5892;43.412;24.612;2023-02-28T07:30:46;100936.75;;;3.69;100.00
11672;BME280;5892;43.412;24.612;2023-02-28T07:33:13;101051.00;;;4.33;100.00
11672;BME280;5892;43.412;24.612;2023-02-28T07:35:40;101042.28;;;4.31;100.00
11672;BME280;5892;43.412;24.612;2023-02-28T07:38:07;100956.44;;;3.81;100.00
11672;BME280;5892;43.412;24.612;2023-02-28T07:40:36;100933.09;;;3.59;100.00
11672;BME280;5892;43.412;24.612;2023-02-28T07:43:03;100995.00;;;4.05;100.00
11672;BME280;5892;43.412;24.612;2023-02-28T07:45:30;101051.59;;;4.40;100.00
11672;BME280;5892;43.412;24.612;2023-02-28T07:48:01;101049.94;;;4.34;100.00
11672;BME280;5892;43.412;24.612;2023-02-28T07:50:29;100956.31;;;3.71;100.00
11672;BME280;5892;43.412;24.612;2023-02-28T07:52:57;101036.44;;;4.39;100.00
11672;BME280;5892;43.412;24.612;2023-02-28T07:55:24;101043.22;;;4.42;100.00
11672;BME280;5892;43.412;24.612;2023-02-28T07:57:51;101048.16;;;4.45;100.00
11672;BME280;5892;43.412;24.612;2023-02-28T08:00:18;100954.50;;;3.99;100.00
11672;BME280;5892;43.412;24.612;2023-02-28T08:02:45;101049.47;;;4.42;100.00
11672;BME280;5892;43.412;24.612;2023-02-28T08:05:13;101051.88;;;4.39;100.00
11672;BME280;5892;43.412;24.612;2023-02-28T08:07:48;101035.03;;;4.37;100.00
11672;BME280;5892;43.412;24.612;2023-02-28T08:10:15;101047.69;;;4.31;100.00
11672;BME280;5892;43.412;24.612;2023-02-28T08:12:43;100908.16;;;3.40;100.00
11672;BME280;5892;43.412;24.612;2023-02-28T08:15:10;101007.66;;;4.00;100.00
11672;BME280;5892;43.412;24.612;2023-02-28T08:17:37;101046.81;;;4.25;100.00
11672;BME280;5892;43.412;24.612;2023-02-28T08:20:05;101051.00;;;4.33;100.00
11672;BME280;5892;43.412;24.612;2023-02-28T08:22:33;101018.91;;;4.08;100.00
11672;BME280;5892;43.412;24.612;2023-02-28T08:25:00;100971.06;;;3.80;100.00
11672;BME280;5892;43.412;24.612;2023-02-28T08:27:27;101024.84;;;4.27;100.00
11672;BME280;5892;43.412;24.612;2023-02-28T08:29:54;101032.13;;;4.43;100.00
11672;BME280;5892;43.412;24.612;2023-02-28T08:32:21;101041.47;;;4.52;100.00
11672;BME280;5892;43.412;24.612;2023-02-28T08:34:48;101023.47;;;4.46;100.00
11672;BME280;5892;43.412;24.612;2023-02-28T08:37:14;101032.38;;;4.63;100.00
11672;BME280;5892;43.412;24.612;2023-02-28T08:39:43;101053.63;;;4.72;100.00
11672;BME280;5892;43.412;24.612;2023-02-28T08:42:10;101029.00;;;4.56;100.00
11672;BME280;5892;43.412;24.612;2023-02-28T08:44:49;101044.19;;;4.52;100.00
11672;BME280;5892;43.412;24.612;2023-02-28T08:47:16;101038.22;;;4.55;100.00
11672;BME280;5892;43.412;24.612;2023-02-28T08:49:43;100980.94;;;4.30;100.00
11672;BME280;5892;43.412;24.612;2023-02-28T08:52:46;100914.06;;;3.75;100.00
11672;BME280;5892;43.412;24.612;2023-02-28T08:55:17;101036.78;;;4.69;100.00
11672;BME280;5892;43.412;24.612;2023-02-28T08:57:53;100928.00;;;3.84;100.00
11672;BME280;5892;43.412;24.612;2023-02-28T09:00:21;100966.34;;;4.14;100.00
11672;BME280;5892;43.412;24.612;2023-02-28T09:02:49;101042.41;;;4.63;100.00
11672;BME280;5892;43.412;24.612;2023-02-28T09:05:16;100943.97;;;3.80;100.00
11672;BME280;5892;43.412;24.612;2023-02-28T09:07:42;101046.31;;;4.72;100.00
11672;BME280;5892;43.412;24.612;2023-02-28T09:10:10;101049.97;;;4.83;100.00
11672;BME280;5892;43.412;24.612;2023-02-28T09:12:39;101012.44;;;4.53;100.00
11672;BME280;5892;43.412;24.612;2023-02-28T09:15:07;101049.78;;;4.67;100.00
11672;BME280;5892;43.412;24.612;2023-02-28T09:17:34;101066.06;;;4.67;100.00
11672;BME280;5892;43.412;24.612;2023-02-28T09:20:01;101077.19;;;4.66;100.00
11672;BME280;5892;43.412;24.612;2023-02-28T09:22:28;101081.00;;;4.65;100.00
11672;BME280;5892;43.412;24.612;2023-02-28T09:24:55;101074.28;;;4.73;100.00
11672;BME280;5892;43.412;24.612;2023-02-28T09:30:12;101047.47;;;4.54;100.00
11672;BME280;5892;43.412;24.612;2023-02-28T09:32:39;101082.59;;;4.88;100.00
11672;BME280;5892;43.412;24.612;2023-02-28T09:38:09;101047.75;;;4.80;100.00
11672;BME280;5892;43.412;24.612;2023-02-28T09:40:37;101075.63;;;4.92;100.00
11672;BME280;5892;43.412;24.612;2023-02-28T09:43:06;101073.97;;;4.91;100.00
11672;BME280;5892;43.412;24.612;2023-02-28T09:45:41;101074.88;;;4.75;100.00
11672;BME280;5892;43.412;24.612;2023-02-28T09:48:13;100936.22;;;3.89;100.00
11672;BME280;5892;43.412;24.612;2023-02-28T09:50:45;101062.81;;;4.65;100.00
11672;BME280;5892;43.412;24.612;2023-02-28T09:53:26;101029.00;;;4.35;100.00
11672;BME280;5892;43.412;24.612;2023-02-28T09:55:55;101076.03;;;4.84;100.00
11672;BME280;5892;43.412;24.612;2023-02-28T09:58:30;101074.22;;;4.89;100.00
11672;BME280;5892;43.412;24.612;2023-02-28T10:01:05;101018.56;;;4.43;100.00
11672;BME280;5892;43.412;24.612;2023-02-28T10:03:36;101088.97;;;4.77;100.00
11672;BME280;5892;43.412;24.612;2023-02-28T10:06:10;101000.31;;;4.39;100.00
11672;BME280;5892;43.412;24.612;2023-02-28T10:08:42;101063.59;;;4.88;100.00
11672;BME280;5892;43.412;24.612;2023-02-28T10:11:14;101059.75;;;4.84;100.00
11672;BME280;5892;43.412;24.612;2023-02-28T10:13:51;101000.13;;;4.45;100.00
11672;BME280;5892;43.412;24.612;2023-02-28T10:16:24;101054.91;;;4.86;100.00
11672;BME280;5892;43.412;24.612;2023-02-28T10:18:57;101052.25;;;4.91;100.00
11672;BME280;5892;43.412;24.612;2023-02-28T10:21:28;101049.25;;;4.92;100.00
11672;BME280;5892;43.412;24.612;2023-02-28T10:27:15;101002.75;;;4.62;100.00
11672;BME280;5892;43.412;24.612;2023-02-28T10:29:46;101017.00;;;4.96;100.00
11672;BME280;5892;43.412;24.612;2023-02-28T10:32:18;101033.44;;;5.11;100.00
11672;BME280;5892;43.412;24.612;2023-02-28T10:34:50;101036.09;;;5.06;100.00
11672;BME280;5892;43.412;24.612;2023-02-28T10:37:19;101032.38;;;5.12;100.00
11672;BME280;5892;43.412;24.612;2023-02-28T10:39:47;101035.34;;;5.10;100.00
11672;BME280;5892;43.412;24.612;2023-02-28T10:42:22;101035.03;;;5.07;100.00
11672;BME280;5892;43.412;24.612;2023-02-28T10:45:05;101033.72;;;4.88;100.00
11672;BME280;5892;43.412;24.612;2023-02-28T10:47:34;100965.31;;;4.64;100.00
11672;BME280;5892;43.412;24.612;2023-02-28T10:50:05;101033.53;;;5.21;100.00
11672;BME280;5892;43.412;24.612;2023-02-28T10:52:36;100971.69;;;5.01;100.00
11672;BME280;5892;43.412;24.612;2023-02-28T10:58:29;101013.88;;;5.14;100.00
11672;BME280;5892;43.412;24.612;2023-02-28T11:00:57;101017.22;;;5.21;100.00
11672;BME280;5892;43.412;24.612;2023-02-28T11:03:44;100890.22;;;4.21;100.00
11672;BME280;5892;43.412;24.612;2023-02-28T11:06:25;101007.44;;;5.20;100.00
11672;BME280;5892;43.412;24.612;2023-02-28T11:08:54;101002.63;;;5.27;100.00
11672;BME280;5892;43.412;24.612;2023-02-28T11:11:24;101005.63;;;5.31;100.00
11672;BME280;5892;43.412;24.612;2023-02-28T11:13:53;100932.94;;;4.84;100.00
11672;BME280;5892;43.412;24.612;2023-02-28T11:16:21;101009.16;;;5.31;100.00
11672;BME280;5892;43.412;24.612;2023-02-28T11:18:53;101004.31;;;5.33;100.00
11672;BME280;5892;43.412;24.612;2023-02-28T11:21:24;100995.78;;;5.25;100.00
11672;BME280;5892;43.412;24.612;2023-02-28T11:23:56;101008.56;;;5.24;100.00
11672;BME280;5892;43.412;24.612;2023-02-28T11:26:36;100982.94;;;5.15;100.00
11672;BME280;5892;43.412;24.612;2023-02-28T11:29:17;101006.88;;;5.18;100.00
11672;BME280;5892;43.412;24.612;2023-02-28T11:32:01;101013.13;;;5.19;100.00
11672;BME280;5892;43.412;24.612;2023-02-28T11:34:31;101014.97;;;5.13;100.00
11672;BME280;5892;43.412;24.612;2023-02-28T11:36:59;100969.75;;;4.97;100.00
11672;BME280;5892;43.412;24.612;2023-02-28T11:39:30;100944.53;;;4.75;100.00
11672;BME280;5892;43.412;24.612;2023-02-28T11:45:12;100973.66;;;5.11;100.00
11672;BME280;5892;43.412;24.612;2023-02-28T11:47:47;101002.34;;;5.29;100.00
11672;BME280;5892;43.412;24.612;2023-02-28T11:50:24;101000.94;;;5.21;100.00
11672;BME280;5892;43.412;24.612;2023-02-28T11:53:42;100998.75;;;5.18;100.00
11672;BME280;5892;43.412;24.612;2023-02-28T11:55:47;100960.19;;;4.67;100.00
11672;BME280;5892;43.412;24.612;2023-02-28T11:58:31;101012.78;;;5.10;100.00
11672;BME280;5892;43.412;24.612;2023-02-28T12:01:15;101002.19;;;5.13;100.00
11672;BME280;5892;43.412;24.612;2023-02-28T12:03:56;100998.47;;;5.20;100.00
11672;BME280;5892;43.412;24.612;2023-02-28T12:06:32;100954.19;;;4.92;100.00
11672;BME280;5892;43.412;24.612;2023-02-28T12:12:15;100993.81;;;5.15;100.00
11672;BME280;5892;43.412;24.612;2023-02-28T12:18:08;100991.19;;;5.25;100.00
11672;BME280;5892;43.412;24.612;2023-02-28T12:20:39;100986.09;;;5.34;100.00
11672;BME280;5892;43.412;24.612;2023-02-28T12:23:29;100995.28;;;5.28;100.00
11672;BME280;5892;43.412;24.612;2023-02-28T12:26:12;100992.56;;;5.28;100.00
11672;BME280;5892;43.412;24.612;2023-02-28T12:28:44;100923.06;;;4.73;100.00
11672;BME280;5892;43.412;24.612;2023-02-28T12:31:18;100977.41;;;5.05;100.00
11672;BME280;5892;43.412;24.612;2023-02-28T12:33:51;101003.25;;;5.07;100.00
11672;BME280;5892;43.412;24.612;2023-02-28T12:36:20;100965.38;;;4.96;100.00
11672;BME280;5892;43.412;24.612;2023-02-28T12:38:53;100873.03;;;4.37;100.00
11672;BME280;5892;43.412;24.612;2023-02-28T12:41:27;101003.91;;;5.20;100.00
11672;BME280;5892;43.412;24.612;2023-02-28T12:44:00;100955.38;;;5.01;100.00
11672;BME280;5892;43.412;24.612;2023-02-28T12:46:32;100983.03;;;5.25;100.00
11672;BME280;5892;43.412;24.612;2023-02-28T12:49:16;100971.19;;;5.09;100.00
11672;BME280;5892;43.412;24.612;2023-02-28T12:51:44;100981.47;;;5.34;100.00
11672;BME280;5892;43.412;24.612;2023-02-28T12:54:20;100926.25;;;4.92;100.00
11672;BME280;5892;43.412;24.612;2023-02-28T12:56:54;101003.94;;;5.25;100.00
11672;BME280;5892;43.412;24.612;2023-02-28T12:59:27;100910.94;;;4.81;100.00
11672;BME280;5892;43.412;24.612;2023-02-28T13:05:35;100985.06;;;5.13;100.00
11672;BME280;5892;43.412;24.612;2023-02-28T13:11:23;100990.84;;;5.17;100.00
11672;BME280;5892;43.412;24.612;2023-02-28T13:13:57;100975.69;;;5.26;100.00
11672;BME280;5892;43.412;24.612;2023-02-28T13:16:24;100906.47;;;4.69;100.00
11672;BME280;5892;43.412;24.612;2023-02-28T13:18:51;100972.81;;;5.05;100.00
11672;BME280;5892;43.412;24.612;2023-02-28T13:21:24;100993.50;;;5.11;100.00
11672;BME280;5892;43.412;24.612;2023-02-28T13:24:02;101012.25;;;5.13;100.00
11672;BME280;5892;43.412;24.612;2023-02-28T13:29:37;100928.19;;;4.69;100.00
11672;BME280;5892;43.412;24.612;2023-02-28T13:35:35;100998.03;;;5.01;100.00
11672;BME280;5892;43.412;24.612;2023-02-28T13:38:17;100990.94;;;5.00;100.00
11672;BME280;5892;43.412;24.612;2023-02-28T13:40:44;100985.25;;;5.01;100.00
11672;BME280;5892;43.412;24.612;2023-02-28T13:43:10;100950.56;;;4.82;100.00
11672;BME280;5892;43.412;24.612;2023-02-28T13:46:04;100990.38;;;4.98;100.00